sensor_id;sensor_type;location;lat;lon;timestamp;P1;durP1;ratioP1;P2;durP2;ratioP2
27778;SDS011;30234;48.090;11.464;2022-12-07T00:01:58;13.38;;;7.28;;
27778;SDS011;30234;48.090;11.464;2022-12-07T00:05:59;13.85;;;7.32;;
27778;SDS011;30234;48.090;11.464;2022-12-07T00:10:00;9.77;;;5.85;;
27778;SDS011;30234;48.090;11.464;2022-12-07T00:14:02;9.15;;;6.30;;
27778;SDS011;30234;48.090;11.464;2022-12-07T00:18:06;8.95;;;6.18;;
27778;SDS011;30234;48.090;11.464;2022-12-07T00:22:06;9.07;;;5.95;;
27778;SDS011;30234;48.090;11.464;2022-12-07T00:26:08;7.82;;;5.32;;
27778;SDS011;30234;48.090;11.464;2022-12-07T00:30:13;10.15;;;6.50;;
27778;SDS011;30234;48.090;11.464;2022-12-07T00:34:15;8.02;;;6.05;;
27778;SDS011;30234;48.090;11.464;2022-12-07T00:38:19;8.68;;;6.07;;
27778;SDS011;30234;48.090;11.464;2022-12-07T00:42:20;8.45;;;6.35;;
27778;SDS011;30234;48.090;11.464;2022-12-07T00:46:21;7.72;;;5.50;;
27778;SDS011;30234;48.090;11.464;2022-12-07T00:50:22;7.57;;;5.65;;
27778;SDS011;30234;48.090;11.464;2022-12-07T00:54:23;9.15;;;6.20;;
27778;SDS011;30234;48.090;11.464;2022-12-07T00:58:24;9.77;;;6.50;;
27778;SDS011;30234;48.090;11.464;2022-12-07T01:02:25;8.50;;;5.20;;
27778;SDS011;30234;48.090;11.464;2022-12-07T01:06:25;9.82;;;5.32;;
27778;SDS011;30234;48.090;11.464;2022-12-07T01:10:26;7.70;;;5.65;;
27778;SDS011;30234;48.090;11.464;2022-12-07T01:14:28;8.63;;;5.57;;
27778;SDS011;30234;48.090;11.464;2022-12-07T01:18:30;9.25;;;6.07;;
27778;SDS011;30234;48.090;11.464;2022-12-07T01:22:37;8.27;;;5.20;;
27778;SDS011;30234;48.090;11.464;2022-12-07T01:26:39;9.30;;;6.28;;
27778;SDS011;30234;48.090;11.464;2022-12-07T01:30:40;7.65;;;5.40;;
27778;SDS011;30234;48.090;11.464;2022-12-07T01:34:40;8.50;;;5.43;;
27778;SDS011;30234;48.090;11.464;2022-12-07T01:38:41;8.63;;;5.82;;
27778;SDS011;30234;48.090;11.464;2022-12-07T01:42:43;7.68;;;5.28;;
27778;SDS011;30234;48.090;11.464;2022-12-07T01:47:02;7.60;;;5.18;;
27778;SDS011;30234;48.090;11.464;2022-12-07T01:51:05;8.73;;;5.32;;
27778;SDS011;30234;48.090;11.464;2022-12-07T01:55:12;7.88;;;5.25;;
27778;SDS011;30234;48.090;11.464;2022-12-07T01:59:16;8.63;;;4.85;;
27778;SDS011;30234;48.090;11.464;2022-12-07T02:03:20;8.57;;;6.22;;
27778;SDS011;30234;48.090;11.464;2022-12-07T02:07:27;8.82;;;5.20;;
27778;SDS011;30234;48.090;11.464;2022-12-07T02:11:29;12.73;;;6.38;;
27778;SDS011;30234;48.090;11.464;2022-12-07T02:15:42;7.70;;;5.45;;
27778;SDS011;30234;48.090;11.464;2022-12-07T02:20:30;7.15;;;5.35;;
27778;SDS011;30234;48.090;11.464;2022-12-07T02:30:00;9.48;;;5.88;;
27778;SDS011;30234;48.090;11.464;2022-12-07T02:34:09;9.05;;;5.40;;
27778;SDS011;30234;48.090;11.464;2022-12-07T02:38:29;10.82;;;6.38;;
27778;SDS011;30234;48.090;11.464;2022-12-07T02:42:44;9.60;;;5.93;;
27778;SDS011;30234;48.090;11.464;2022-12-07T02:47:24;9.75;;;6.13;;
27778;SDS011;30234;48.090;11.464;2022-12-07T02:51:20;8.63;;;5.85;;
27778;SDS011;30234;48.090;11.464;2022-12-07T02:55:24;8.80;;;6.32;;
27778;SDS011;30234;48.090;11.464;2022-12-07T03:04:13;9.75;;;6.03;;
27778;SDS011;30234;48.090;11.464;2022-12-07T03:09:23;7.35;;;5.43;;
27778;SDS011;30234;48.090;11.464;2022-12-07T03:18:03;8.80;;;5.63;;
27778;SDS011;30234;48.090;11.464;2022-12-07T03:22:07;11.52;;;5.50;;
27778;SDS011;30234;48.090;11.464;2022-12-07T03:26:11;10.02;;;5.82;;
27778;SDS011;30234;48.090;11.464;2022-12-07T03:30:15;10.05;;;6.28;;
27778;SDS011;30234;48.090;11.464;2022-12-07T03:34:25;10.18;;;6.57;;
27778;SDS011;30234;48.090;11.464;2022-12-07T03:43:28;7.88;;;5.22;;
27778;SDS011;30234;48.090;11.464;2022-12-07T03:47:34;9.90;;;6.68;;
27778;SDS011;30234;48.090;11.464;2022-12-07T03:52:07;8.38;;;5.57;;
27778;SDS011;30234;48.090;11.464;2022-12-07T03:56:11;9.40;;;5.82;;
27778;SDS011;30234;48.090;11.464;2022-12-07T04:00:14;10.73;;;5.90;;
27778;SDS011;30234;48.090;11.464;2022-12-07T04:04:15;9.48;;;6.03;;
27778;SDS011;30234;48.090;11.464;2022-12-07T04:08:16;10.63;;;6.13;;
27778;SDS011;30234;48.090;11.464;2022-12-07T04:12:17;10.10;;;6.55;;
27778;SDS011;30234;48.090;11.464;2022-12-07T04:16:17;8.90;;;5.90;;
27778;SDS011;30234;48.090;11.464;2022-12-07T04:20:18;12.32;;;6.80;;
27778;SDS011;30234;48.090;11.464;2022-12-07T04:24:19;9.50;;;6.35;;
27778;SDS011;30234;48.090;11.464;2022-12-07T04:28:20;12.07;;;6.35;;
27778;SDS011;30234;48.090;11.464;2022-12-07T04:32:22;8.90;;;6.13;;
27778;SDS011;30234;48.090;11.464;2022-12-07T04:36:23;8.98;;;6.45;;
27778;SDS011;30234;48.090;11.464;2022-12-07T04:40:24;9.07;;;6.47;;
27778;SDS011;30234;48.090;11.464;2022-12-07T04:44:25;10.65;;;6.55;;
27778;SDS011;30234;48.090;11.464;2022-12-07T04:48:27;12.60;;;7.43;;
27778;SDS011;30234;48.090;11.464;2022-12-07T04:52:28;11.35;;;7.50;;
27778;SDS011;30234;48.090;11.464;2022-12-07T04:56:29;10.68;;;7.00;;
27778;SDS011;30234;48.090;11.464;2022-12-07T05:00:30;11.15;;;6.78;;
27778;SDS011;30234;48.090;11.464;2022-12-07T05:04:30;8.88;;;6.55;;
27778;SDS011;30234;48.090;11.464;2022-12-07T05:08:31;11.85;;;7.30;;
27778;SDS011;30234;48.090;11.464;2022-12-07T05:12:33;10.55;;;7.13;;
27778;SDS011;30234;48.090;11.464;2022-12-07T05:16:34;11.20;;;7.05;;
27778;SDS011;30234;48.090;11.464;2022-12-07T05:20:35;11.98;;;6.93;;
27778;SDS011;30234;48.090;11.464;2022-12-07T05:24:36;11.45;;;7.85;;
27778;SDS011;30234;48.090;11.464;2022-12-07T05:28:37;12.05;;;7.38;;
27778;SDS011;30234;48.090;11.464;2022-12-07T05:32:37;12.00;;;7.22;;
27778;SDS011;30234;48.090;11.464;2022-12-07T05:36:38;11.10;;;6.57;;
27778;SDS011;30234;48.090;11.464;2022-12-07T05:40:39;10.45;;;7.60;;
27778;SDS011;30234;48.090;11.464;2022-12-07T05:44:40;11.85;;;6.05;;
27778;SDS011;30234;48.090;11.464;2022-12-07T05:48:45;9.38;;;6.75;;
27778;SDS011;30234;48.090;11.464;2022-12-07T05:52:46;10.52;;;6.75;;
27778;SDS011;30234;48.090;11.464;2022-12-07T05:56:46;10.23;;;6.55;;
27778;SDS011;30234;48.090;11.464;2022-12-07T06:00:47;11.60;;;6.93;;
27778;SDS011;30234;48.090;11.464;2022-12-07T06:04:48;8.98;;;6.55;;
27778;SDS011;30234;48.090;11.464;2022-12-07T06:08:49;12.05;;;7.68;;
27778;SDS011;30234;48.090;11.464;2022-12-07T06:12:49;11.63;;;7.53;;
27778;SDS011;30234;48.090;11.464;2022-12-07T06:16:50;11.77;;;8.60;;
27778;SDS011;30234;48.090;11.464;2022-12-07T06:20:51;11.05;;;6.75;;
27778;SDS011;30234;48.090;11.464;2022-12-07T06:24:52;11.27;;;7.05;;
27778;SDS011;30234;48.090;11.464;2022-12-07T06:28:53;10.27;;;7.32;;
27778;SDS011;30234;48.090;11.464;2022-12-07T06:32:55;12.35;;;7.35;;
27778;SDS011;30234;48.090;11.464;2022-12-07T06:36:55;10.60;;;6.93;;
27778;SDS011;30234;48.090;11.464;2022-12-07T06:40:56;11.38;;;7.63;;
27778;SDS011;30234;48.090;11.464;2022-12-07T06:44:57;9.88;;;7.10;;
27778;SDS011;30234;48.090;11.464;2022-12-07T06:48:58;13.30;;;7.32;;
27778;SDS011;30234;48.090;11.464;2022-12-07T06:52:58;9.45;;;6.25;;
27778;SDS011;30234;48.090;11.464;2022-12-07T06:56:59;11.07;;;6.97;;
27778;SDS011;30234;48.090;11.464;2022-12-07T07:01:00;10.95;;;6.60;;
27778;SDS011;30234;48.090;11.464;2022-12-07T07:05:01;11.07;;;7.35;;
27778;SDS011;30234;48.090;11.464;2022-12-07T07:09:02;10.00;;;6.65;;
27778;SDS011;30234;48.090;11.464;2022-12-07T07:13:03;11.25;;;7.40;;
27778;SDS011;30234;48.090;11.464;2022-12-07T07:17:04;13.65;;;6.80;;
27778;SDS011;30234;48.090;11.464;2022-12-07T07:21:05;11.65;;;6.88;;
27778;SDS011;30234;48.090;11.464;2022-12-07T07:25:06;11.45;;;6.60;;
27778;SDS011;30234;48.090;11.464;2022-12-07T07:29:07;15.02;;;8.38;;
27778;SDS011;30234;48.090;11.464;2022-12-07T07:33:08;19.63;;;8.10;;
27778;SDS011;30234;48.090;11.464;2022-12-07T07:37:10;12.48;;;8.73;;
27778;SDS011;30234;48.090;11.464;2022-12-07T07:41:12;15.73;;;8.88;;
27778;SDS011;30234;48.090;11.464;2022-12-07T07:45:13;12.43;;;7.75;;
27778;SDS011;30234;48.090;11.464;2022-12-07T07:49:14;13.07;;;7.97;;
27778;SDS011;30234;48.090;11.464;2022-12-07T07:53:15;11.77;;;8.23;;
27778;SDS011;30234;48.090;11.464;2022-12-07T07:57:16;12.63;;;7.72;;
27778;SDS011;30234;48.090;11.464;2022-12-07T08:01:17;15.68;;;8.30;;
27778;SDS011;30234;48.090;11.464;2022-12-07T08:05:19;12.07;;;7.65;;
27778;SDS011;30234;48.090;11.464;2022-12-07T08:09:20;14.35;;;8.45;;
27778;SDS011;30234;48.090;11.464;2022-12-07T08:13:21;14.32;;;8.80;;
27778;SDS011;30234;48.090;11.464;2022-12-07T08:17:21;13.75;;;9.00;;
27778;SDS011;30234;48.090;11.464;2022-12-07T08:21:22;14.88;;;9.13;;
27778;SDS011;30234;48.090;11.464;2022-12-07T08:25:23;12.82;;;8.75;;
27778;SDS011;30234;48.090;11.464;2022-12-07T08:29:25;15.30;;;9.40;;
27778;SDS011;30234;48.090;11.464;2022-12-07T08:33:25;17.30;;;8.70;;
27778;SDS011;30234;48.090;11.464;2022-12-07T08:37:26;14.13;;;8.85;;
27778;SDS011;30234;48.090;11.464;2022-12-07T08:41:27;13.52;;;9.10;;
27778;SDS011;30234;48.090;11.464;2022-12-07T08:45:28;13.63;;;8.95;;
27778;SDS011;30234;48.090;11.464;2022-12-07T08:49:39;15.80;;;9.18;;
27778;SDS011;30234;48.090;11.464;2022-12-07T08:53:44;16.02;;;9.32;;
27778;SDS011;30234;48.090;11.464;2022-12-07T08:57:45;15.50;;;8.57;;
27778;SDS011;30234;48.090;11.464;2022-12-07T09:01:46;16.00;;;8.98;;
27778;SDS011;30234;48.090;11.464;2022-12-07T09:05:47;13.68;;;9.38;;
27778;SDS011;30234;48.090;11.464;2022-12-07T09:09:48;13.60;;;9.15;;
27778;SDS011;30234;48.090;11.464;2022-12-07T09:13:49;14.88;;;9.18;;
27778;SDS011;30234;48.090;11.464;2022-12-07T09:17:49;15.25;;;8.65;;
27778;SDS011;30234;48.090;11.464;2022-12-07T09:21:51;11.00;;;7.82;;
27778;SDS011;30234;48.090;11.464;2022-12-07T09:25:52;11.80;;;7.80;;
27778;SDS011;30234;48.090;11.464;2022-12-07T09:29:53;13.32;;;8.40;;
27778;SDS011;30234;48.090;11.464;2022-12-07T09:33:54;16.50;;;10.00;;
27778;SDS011;30234;48.090;11.464;2022-12-07T09:37:57;13.23;;;8.75;;
27778;SDS011;30234;48.090;11.464;2022-12-07T09:41:58;18.60;;;9.43;;
27778;SDS011;30234;48.090;11.464;2022-12-07T09:46:03;14.68;;;8.68;;
27778;SDS011;30234;48.090;11.464;2022-12-07T09:50:05;17.70;;;9.52;;
27778;SDS011;30234;48.090;11.464;2022-12-07T09:54:17;12.10;;;7.43;;
27778;SDS011;30234;48.090;11.464;2022-12-07T09:58:24;11.38;;;7.50;;
27778;SDS011;30234;48.090;11.464;2022-12-07T10:02:37;9.47;;;7.10;;
27778;SDS011;30234;48.090;11.464;2022-12-07T10:06:55;11.63;;;7.30;;
27778;SDS011;30234;48.090;11.464;2022-12-07T10:10:56;10.55;;;7.13;;
27778;SDS011;30234;48.090;11.464;2022-12-07T10:15:02;12.52;;;7.03;;
27778;SDS011;30234;48.090;11.464;2022-12-07T10:19:20;11.75;;;7.35;;
27778;SDS011;30234;48.090;11.464;2022-12-07T10:23:30;12.93;;;8.10;;
27778;SDS011;30234;48.090;11.464;2022-12-07T10:27:32;11.45;;;7.47;;
27778;SDS011;30234;48.090;11.464;2022-12-07T10:31:32;9.70;;;7.32;;
27778;SDS011;30234;48.090;11.464;2022-12-07T10:35:42;11.73;;;6.63;;
27778;SDS011;30234;48.090;11.464;2022-12-07T10:43:50;8.52;;;6.18;;
27778;SDS011;30234;48.090;11.464;2022-12-07T10:48:08;7.35;;;5.35;;
27778;SDS011;30234;48.090;11.464;2022-12-07T10:52:33;8.20;;;5.25;;
27778;SDS011;30234;48.090;11.464;2022-12-07T10:57:05;11.82;;;5.57;;
27778;SDS011;30234;48.090;11.464;2022-12-07T11:10:26;5.78;;;4.40;;
27778;SDS011;30234;48.090;11.464;2022-12-07T11:14:49;5.50;;;4.05;;
27778;SDS011;30234;48.090;11.464;2022-12-07T11:24:09;5.20;;;4.20;;
27778;SDS011;30234;48.090;11.464;2022-12-07T11:36:45;7.50;;;4.45;;
27778;SDS011;30234;48.090;11.464;2022-12-07T11:40:53;4.82;;;3.80;;
27778;SDS011;30234;48.090;11.464;2022-12-07T11:45:14;6.30;;;4.75;;
27778;SDS011;30234;48.090;11.464;2022-12-07T11:53:38;6.50;;;4.13;;
27778;SDS011;30234;48.090;11.464;2022-12-07T11:57:49;5.85;;;4.30;;
27778;SDS011;30234;48.090;11.464;2022-12-07T12:06:13;5.97;;;4.47;;
27778;SDS011;30234;48.090;11.464;2022-12-07T12:10:16;7.57;;;5.00;;
27778;SDS011;30234;48.090;11.464;2022-12-07T12:27:35;6.25;;;4.70;;
27778;SDS011;30234;48.090;11.464;2022-12-07T12:31:38;8.25;;;4.60;;
27778;SDS011;30234;48.090;11.464;2022-12-07T12:35:41;6.43;;;4.90;;
27778;SDS011;30234;48.090;11.464;2022-12-07T12:39:54;7.05;;;4.65;;
27778;SDS011;30234;48.090;11.464;2022-12-07T12:48:29;7.75;;;5.10;;
27778;SDS011;30234;48.090;11.464;2022-12-07T13:05:30;13.68;;;7.18;;
27778;SDS011;30234;48.090;11.464;2022-12-07T13:09:33;8.07;;;5.47;;
27778;SDS011;30234;48.090;11.464;2022-12-07T13:13:35;9.70;;;4.97;;
27778;SDS011;30234;48.090;11.464;2022-12-07T13:21:55;6.95;;;4.43;;
27778;SDS011;30234;48.090;11.464;2022-12-07T13:30:23;6.50;;;4.63;;
27778;SDS011;30234;48.090;11.464;2022-12-07T13:34:37;6.35;;;4.65;;
27778;SDS011;30234;48.090;11.464;2022-12-07T13:38:47;7.10;;;5.15;;
27778;SDS011;30234;48.090;11.464;2022-12-07T13:42:58;6.93;;;4.93;;
27778;SDS011;30234;48.090;11.464;2022-12-07T13:51:34;7.53;;;5.10;;
27778;SDS011;30234;48.090;11.464;2022-12-07T13:55:36;8.98;;;5.18;;
27778;SDS011;30234;48.090;11.464;2022-12-07T13:59:46;9.43;;;6.23;;
27778;SDS011;30234;48.090;11.464;2022-12-07T14:03:47;7.95;;;5.13;;
27778;SDS011;30234;48.090;11.464;2022-12-07T14:07:48;6.93;;;4.50;;
27778;SDS011;30234;48.090;11.464;2022-12-07T14:11:57;8.10;;;4.75;;
27778;SDS011;30234;48.090;11.464;2022-12-07T14:15:58;9.48;;;5.10;;
27778;SDS011;30234;48.090;11.464;2022-12-07T14:20:01;10.82;;;5.07;;
27778;SDS011;30234;48.090;11.464;2022-12-07T14:28:27;7.00;;;4.10;;
27778;SDS011;30234;48.090;11.464;2022-12-07T14:32:30;6.32;;;4.13;;
27778;SDS011;30234;48.090;11.464;2022-12-07T14:36:34;8.27;;;3.90;;
27778;SDS011;30234;48.090;11.464;2022-12-07T14:40:35;6.00;;;3.92;;
27778;SDS011;30234;48.090;11.464;2022-12-07T14:44:35;18.95;;;8.60;;
27778;SDS011;30234;48.090;11.464;2022-12-07T14:48:36;18.95;;;9.07;;
27778;SDS011;30234;48.090;11.464;2022-12-07T14:52:37;7.43;;;4.70;;
27778;SDS011;30234;48.090;11.464;2022-12-07T14:56:39;9.90;;;5.38;;
27778;SDS011;30234;48.090;11.464;2022-12-07T15:00:40;8.68;;;5.25;;
27778;SDS011;30234;48.090;11.464;2022-12-07T15:04:41;7.80;;;4.90;;
27778;SDS011;30234;48.090;11.464;2022-12-07T15:08:42;6.10;;;4.10;;
27778;SDS011;30234;48.090;11.464;2022-12-07T15:12:44;6.50;;;4.28;;
27778;SDS011;30234;48.090;11.464;2022-12-07T15:16:45;7.55;;;4.65;;
27778;SDS011;30234;48.090;11.464;2022-12-07T15:20:46;8.60;;;5.78;;
27778;SDS011;30234;48.090;11.464;2022-12-07T15:24:47;8.15;;;5.63;;
27778;SDS011;30234;48.090;11.464;2022-12-07T15:28:48;9.43;;;4.57;;
27778;SDS011;30234;48.090;11.464;2022-12-07T15:32:49;7.65;;;4.60;;
27778;SDS011;30234;48.090;11.464;2022-12-07T15:36:51;8.07;;;4.38;;
27778;SDS011;30234;48.090;11.464;2022-12-07T15:40:51;8.90;;;4.57;;
27778;SDS011;30234;48.090;11.464;2022-12-07T15:44:52;6.75;;;3.63;;
27778;SDS011;30234;48.090;11.464;2022-12-07T15:49:09;6.75;;;3.75;;
27778;SDS011;30234;48.090;11.464;2022-12-07T15:53:16;7.03;;;4.10;;
27778;SDS011;30234;48.090;11.464;2022-12-07T15:57:17;5.43;;;3.72;;
27778;SDS011;30234;48.090;11.464;2022-12-07T16:01:18;7.93;;;4.63;;
27778;SDS011;30234;48.090;11.464;2022-12-07T16:05:19;6.20;;;4.15;;
27778;SDS011;30234;48.090;11.464;2022-12-07T16:09:20;8.18;;;5.07;;
27778;SDS011;30234;48.090;11.464;2022-12-07T16:13:21;8.45;;;5.05;;
27778;SDS011;30234;48.090;11.464;2022-12-07T16:17:22;7.25;;;4.45;;
27778;SDS011;30234;48.090;11.464;2022-12-07T16:21:23;8.63;;;6.00;;
27778;SDS011;30234;48.090;11.464;2022-12-07T16:25:23;12.50;;;7.85;;
27778;SDS011;30234;48.090;11.464;2022-12-07T16:29:24;13.13;;;7.72;;
27778;SDS011;30234;48.090;11.464;2022-12-07T16:33:25;10.48;;;6.72;;
27778;SDS011;30234;48.090;11.464;2022-12-07T16:37:25;10.07;;;6.95;;
27778;SDS011;30234;48.090;11.464;2022-12-07T16:41:26;9.88;;;5.80;;
27778;SDS011;30234;48.090;11.464;2022-12-07T16:45:27;5.70;;;4.13;;
27778;SDS011;30234;48.090;11.464;2022-12-07T16:49:28;6.07;;;4.28;;
27778;SDS011;30234;48.090;11.464;2022-12-07T16:53:29;8.98;;;4.78;;
27778;SDS011;30234;48.090;11.464;2022-12-07T16:57:29;7.03;;;4.47;;
27778;SDS011;30234;48.090;11.464;2022-12-07T17:01:31;8.38;;;5.20;;
27778;SDS011;30234;48.090;11.464;2022-12-07T17:05:32;10.88;;;6.30;;
27778;SDS011;30234;48.090;11.464;2022-12-07T17:09:33;9.57;;;5.22;;
27778;SDS011;30234;48.090;11.464;2022-12-07T17:13:34;9.88;;;5.70;;
27778;SDS011;30234;48.090;11.464;2022-12-07T17:17:55;9.73;;;6.10;;
27778;SDS011;30234;48.090;11.464;2022-12-07T17:21:57;10.00;;;6.30;;
27778;SDS011;30234;48.090;11.464;2022-12-07T17:26:06;8.40;;;5.20;;
27778;SDS011;30234;48.090;11.464;2022-12-07T17:34:10;12.95;;;7.93;;
27778;SDS011;30234;48.090;11.464;2022-12-07T17:38:13;9.38;;;5.75;;
27778;SDS011;30234;48.090;11.464;2022-12-07T17:42:14;12.13;;;6.10;;
27778;SDS011;30234;48.090;11.464;2022-12-07T17:46:33;9.52;;;6.60;;
27778;SDS011;30234;48.090;11.464;2022-12-07T17:50:34;13.48;;;5.60;;
27778;SDS011;30234;48.090;11.464;2022-12-07T17:54:55;8.88;;;5.30;;
27778;SDS011;30234;48.090;11.464;2022-12-07T17:58:56;13.23;;;6.05;;
27778;SDS011;30234;48.090;11.464;2022-12-07T18:02:57;7.85;;;5.20;;
27778;SDS011;30234;48.090;11.464;2022-12-07T18:06:57;8.38;;;5.40;;
27778;SDS011;30234;48.090;11.464;2022-12-07T18:10:59;10.82;;;5.68;;
27778;SDS011;30234;48.090;11.464;2022-12-07T18:15:00;9.82;;;6.20;;
27778;SDS011;30234;48.090;11.464;2022-12-07T18:19:01;10.15;;;5.25;;
27778;SDS011;30234;48.090;11.464;2022-12-07T18:23:04;9.10;;;5.40;;
27778;SDS011;30234;48.090;11.464;2022-12-07T18:27:05;9.82;;;5.18;;
27778;SDS011;30234;48.090;11.464;2022-12-07T18:31:06;8.68;;;4.93;;
27778;SDS011;30234;48.090;11.464;2022-12-07T18:35:07;10.80;;;5.63;;
27778;SDS011;30234;48.090;11.464;2022-12-07T18:39:08;7.43;;;4.75;;
27778;SDS011;30234;48.090;11.464;2022-12-07T18:43:09;9.90;;;5.80;;
27778;SDS011;30234;48.090;11.464;2022-12-07T18:47:10;11.02;;;6.13;;
27778;SDS011;30234;48.090;11.464;2022-12-07T18:51:12;11.60;;;6.75;;
27778;SDS011;30234;48.090;11.464;2022-12-07T18:55:14;11.02;;;6.22;;
27778;SDS011;30234;48.090;11.464;2022-12-07T18:59:15;9.45;;;5.68;;
27778;SDS011;30234;48.090;11.464;2022-12-07T19:03:34;6.70;;;4.55;;
27778;SDS011;30234;48.090;11.464;2022-12-07T19:07:35;9.73;;;5.45;;
27778;SDS011;30234;48.090;11.464;2022-12-07T19:11:36;10.80;;;5.60;;
27778;SDS011;30234;48.090;11.464;2022-12-07T19:15:48;15.23;;;8.38;;
27778;SDS011;30234;48.090;11.464;2022-12-07T19:19:49;10.77;;;6.60;;
27778;SDS011;30234;48.090;11.464;2022-12-07T19:23:50;15.10;;;8.27;;
27778;SDS011;30234;48.090;11.464;2022-12-07T19:27:51;16.70;;;8.68;;
27778;SDS011;30234;48.090;11.464;2022-12-07T19:31:51;21.40;;;9.73;;
27778;SDS011;30234;48.090;11.464;2022-12-07T19:35:52;11.07;;;6.18;;
27778;SDS011;30234;48.090;11.464;2022-12-07T19:39:53;12.13;;;6.53;;
27778;SDS011;30234;48.090;11.464;2022-12-07T19:43:55;7.40;;;4.22;;
27778;SDS011;30234;48.090;11.464;2022-12-07T19:47:56;9.02;;;5.20;;
27778;SDS011;30234;48.090;11.464;2022-12-07T19:51:58;8.85;;;5.65;;
27778;SDS011;30234;48.090;11.464;2022-12-07T19:56:03;9.73;;;5.95;;
27778;SDS011;30234;48.090;11.464;2022-12-07T20:00:04;7.70;;;4.53;;
27778;SDS011;30234;48.090;11.464;2022-12-07T20:04:07;5.70;;;4.18;;
27778;SDS011;30234;48.090;11.464;2022-12-07T20:08:11;7.78;;;4.38;;
27778;SDS011;30234;48.090;11.464;2022-12-07T20:12:12;10.23;;;5.95;;
27778;SDS011;30234;48.090;11.464;2022-12-07T20:16:31;15.73;;;9.45;;
27778;SDS011;30234;48.090;11.464;2022-12-07T20:20:33;21.45;;;11.38;;
27778;SDS011;30234;48.090;11.464;2022-12-07T20:24:34;17.90;;;8.40;;
27778;SDS011;30234;48.090;11.464;2022-12-07T20:28:35;19.42;;;8.90;;
27778;SDS011;30234;48.090;11.464;2022-12-07T20:32:36;15.32;;;7.45;;
27778;SDS011;30234;48.090;11.464;2022-12-07T20:36:36;14.80;;;8.43;;
27778;SDS011;30234;48.090;11.464;2022-12-07T20:40:37;12.80;;;7.00;;
27778;SDS011;30234;48.090;11.464;2022-12-07T20:44:44;12.55;;;7.30;;
27778;SDS011;30234;48.090;11.464;2022-12-07T20:48:45;13.77;;;7.50;;
27778;SDS011;30234;48.090;11.464;2022-12-07T20:52:45;12.85;;;7.18;;
27778;SDS011;30234;48.090;11.464;2022-12-07T20:56:46;11.23;;;6.88;;
27778;SDS011;30234;48.090;11.464;2022-12-07T21:00:47;13.02;;;7.47;;
27778;SDS011;30234;48.090;11.464;2022-12-07T21:04:47;12.70;;;7.30;;
27778;SDS011;30234;48.090;11.464;2022-12-07T21:08:50;11.65;;;6.90;;
27778;SDS011;30234;48.090;11.464;2022-12-07T21:12:54;12.15;;;6.95;;
27778;SDS011;30234;48.090;11.464;2022-12-07T21:16:54;11.10;;;6.60;;
27778;SDS011;30234;48.090;11.464;2022-12-07T21:20:55;8.80;;;5.70;;
27778;SDS011;30234;48.090;11.464;2022-12-07T21:25:01;9.15;;;5.90;;
27778;SDS011;30234;48.090;11.464;2022-12-07T21:29:06;12.90;;;5.95;;
27778;SDS011;30234;48.090;11.464;2022-12-07T21:33:06;11.02;;;6.40;;
27778;SDS011;30234;48.090;11.464;2022-12-07T21:37:07;12.20;;;7.45;;
27778;SDS011;30234;48.090;11.464;2022-12-07T21:41:15;11.82;;;7.13;;
27778;SDS011;30234;48.090;11.464;2022-12-07T21:45:22;12.38;;;7.60;;
27778;SDS011;30234;48.090;11.464;2022-12-07T21:49:23;17.67;;;6.80;;
27778;SDS011;30234;48.090;11.464;2022-12-07T21:53:24;14.45;;;7.47;;
27778;SDS011;30234;48.090;11.464;2022-12-07T21:57:24;18.40;;;7.53;;
27778;SDS011;30234;48.090;11.464;2022-12-07T22:01:26;12.15;;;6.70;;
27778;SDS011;30234;48.090;11.464;2022-12-07T22:05:29;11.00;;;6.55;;
27778;SDS011;30234;48.090;11.464;2022-12-07T22:09:30;12.13;;;5.90;;
27778;SDS011;30234;48.090;11.464;2022-12-07T22:13:31;13.10;;;6.35;;
27778;SDS011;30234;48.090;11.464;2022-12-07T22:17:50;10.50;;;6.47;;
27778;SDS011;30234;48.090;11.464;2022-12-07T22:21:52;12.18;;;6.28;;
27778;SDS011;30234;48.090;11.464;2022-12-07T22:25:52;9.57;;;5.88;;
27778;SDS011;30234;48.090;11.464;2022-12-07T22:29:53;9.20;;;4.82;;
27778;SDS011;30234;48.090;11.464;2022-12-07T22:33:54;9.70;;;4.93;;
27778;SDS011;30234;48.090;11.464;2022-12-07T22:37:54;9.02;;;5.25;;
27778;SDS011;30234;48.090;11.464;2022-12-07T22:41:55;7.55;;;4.93;;
27778;SDS011;30234;48.090;11.464;2022-12-07T22:45:57;9.07;;;5.53;;
27778;SDS011;30234;48.090;11.464;2022-12-07T22:49:58;13.93;;;5.80;;
27778;SDS011;30234;48.090;11.464;2022-12-07T22:54:00;8.32;;;5.07;;
27778;SDS011;30234;48.090;11.464;2022-12-07T22:58:04;8.65;;;5.35;;
27778;SDS011;30234;48.090;11.464;2022-12-07T23:02:05;8.63;;;5.45;;
27778;SDS011;30234;48.090;11.464;2022-12-07T23:06:06;9.27;;;5.35;;
27778;SDS011;30234;48.090;11.464;2022-12-07T23:10:09;9.10;;;5.38;;
27778;SDS011;30234;48.090;11.464;2022-12-07T23:14:15;11.60;;;6.07;;
27778;SDS011;30234;48.090;11.464;2022-12-07T23:18:19;12.93;;;6.55;;
27778;SDS011;30234;48.090;11.464;2022-12-07T23:22:20;8.68;;;5.72;;
27778;SDS011;30234;48.090;11.464;2022-12-07T23:26:21;9.00;;;5.18;;
27778;SDS011;30234;48.090;11.464;2022-12-07T23:30:21;9.18;;;5.50;;
27778;SDS011;30234;48.090;11.464;2022-12-07T23:34:22;8.52;;;5.43;;
27778;SDS011;30234;48.090;11.464;2022-12-07T23:38:23;10.13;;;6.00;;
27778;SDS011;30234;48.090;11.464;2022-12-07T23:42:24;8.90;;;6.20;;
27778;SDS011;30234;48.090;11.464;2022-12-07T23:46:25;11.48;;;5.93;;
27778;SDS011;30234;48.090;11.464;2022-12-07T23:50:30;11.48;;;6.90;;
27778;SDS011;30234;48.090;11.464;2022-12-07T23:54:33;10.65;;;6.13;;
27778;SDS011;30234;48.090;11.464;2022-12-07T23:58:33;11.57;;;6.85;;
